Time;durP1;ratioP1;P1;durP2;ratioP2;P2;SDS_P1;SDS_P2;PMS_P1;PMS_P2;Temp;Humidity;BMP_temperature;BMP_pressure;BME280_temperature;BME280_humidity;BME280_pressure;Samples;Min_cycle;Max_cycle;Signal;HPM_P1;HPM_P2
2022/11/25 00:01:23;;;;;;;29.40;4.80;;;11.50;99.90;;;;;;5071975;28;20025;-79
2022/11/25 00:03:50;;;;;;;23.75;4.72;;;11.40;99.90;;;;;;5072218;28;20029;-79
2022/11/25 00:06:18;;;;;;;17.40;3.58;;;11.40;99.90;;;;;;5072228;28;20036;-80
2022/11/25 00:08:45;;;;;;;18.05;3.53;;;11.40;99.90;;;;;;5072136;28;20116;-80
2022/11/25 00:11:12;;;;;;;25.42;4.70;;;11.40;99.90;;;;;;5070981;28;20044;-80
2022/11/25 00:13:39;;;;;;;25.23;4.68;;;11.30;99.90;;;;;;5071799;28;20047;-79
2022/11/25 00:16:07;;;;;;;28.45;4.18;;;11.20;99.90;;;;;;5056841;28;20021;-78
2022/11/25 00:18:34;;;;;;;33.70;5.85;;;11.10;99.90;;;;;;5032228;28;20041;-80
2022/11/25 00:21:08;;;;;;;18.00;4.85;;;11.20;99.90;;;;;;5059144;28;20457;-79
2022/11/25 00:23:35;;;;;;;28.35;4.93;;;11.20;99.90;;;;;;5049269;28;20035;-77
2022/11/25 00:26:15;;;;;;;27.40;5.03;;;11.00;99.90;;;;;;5043935;28;20108;-80
2022/11/25 00:28:43;;;;;;;22.63;3.42;;;10.90;99.90;;;;;;5053031;28;20029;-79
2022/11/25 00:31:10;;;;;;;21.42;4.10;;;10.80;99.90;;;;;;5067807;28;20531;-77
2022/11/25 00:33:36;;;;;;;27.10;4.63;;;10.90;99.90;;;;;;5055027;28;20396;-80
2022/11/25 00:36:04;;;;;;;26.35;4.70;;;10.90;99.90;;;;;;5058477;28;20091;-80
2022/11/25 00:38:29;;;;;;;31.88;4.60;;;10.90;99.90;;;;;;5071953;28;20100;-79
2022/11/25 00:44:34;;;;;;;21.80;4.25;;;10.80;99.90;;;;;;5052611;28;20124;-79
2022/11/25 00:46:26;;;;;;;20.88;3.20;;;10.70;99.90;;;;;;5057571;28;20412;-79
2022/11/25 00:48:52;;;;;;;18.95;3.67;;;10.50;99.90;;;;;;5045660;28;20037;-79
2022/11/25 00:51:18;;;;;;;14.13;2.70;;;10.40;99.90;;;;;;5040035;28;20500;-79
2022/11/25 00:53:43;;;;;;;13.57;3.33;;;10.40;99.90;;;;;;5043156;28;20029;-79
2022/11/25 00:56:12;;;;;;;13.48;2.63;;;10.40;99.90;;;;;;5054554;28;20021;-80
2022/11/25 00:58:39;;;;;;;14.38;3.00;;;10.40;99.90;;;;;;5067122;28;20478;-79
2022/11/25 01:01:05;;;;;;;11.00;2.95;;;10.30;99.90;;;;;;5073560;28;20059;-79
2022/11/25 01:03:36;;;;;;;15.45;3.70;;;10.40;99.90;;;;;;5075202;28;20037;-79
2022/11/25 01:06:07;;;;;;;13.52;2.92;;;10.30;99.90;;;;;;5062681;28;20040;-79
2022/11/25 01:08:33;;;;;;;;;;;10.40;99.90;;;;;;5053329;28;20029;-79
2022/11/25 01:11:09;;;;;;;17.00;2.20;;;10.30;99.90;;;;;;5066676;28;19972;-79
2022/11/25 01:13:35;;;;;;;12.48;1.90;;;10.20;99.90;;;;;;5073555;28;20028;-79
2022/11/25 01:16:05;;;;;;;11.85;2.40;;;10.10;99.90;;;;;;5059610;28;20021;-80
2022/11/25 01:18:31;;;;;;;13.15;2.70;;;10.20;99.90;;;;;;5073699;28;20054;-80
2022/11/25 01:21:08;;;;;;;12.65;1.75;;;10.20;99.90;;;;;;5049296;28;20013;-79
2022/11/25 01:23:34;;;;;;;9.98;3.17;;;10.20;99.90;;;;;;5055496;28;20029;-79
2022/11/25 01:26:05;;;;;;;9.82;1.45;;;10.30;99.90;;;;;;5046447;28;20081;-80
2022/11/25 01:28:32;;;;;;;10.38;2.30;;;10.20;99.90;;;;;;5074502;28;20068;-79
2022/11/25 01:31:08;;;;;;;8.43;1.65;;;10.10;99.90;;;;;;5060343;28;20024;-80
2022/11/25 01:33:34;;;;;;;11.23;1.58;;;10.00;99.90;;;;;;5046302;28;20067;-80
2022/11/25 01:36:02;;;;;;;11.60;1.60;;;10.10;99.90;;;;;;5061486;28;20024;-79
2022/11/25 01:38:28;;;;;;;9.02;2.00;;;10.00;99.90;;;;;;5056585;28;20012;-80
2022/11/25 01:40:54;;;;;;;7.82;1.55;;;10.00;99.90;;;;;;5069780;28;20544;-79
2022/11/25 01:43:20;;;;;;;13.93;1.17;;;10.00;99.90;;;;;;5072869;28;20119;-79
2022/11/25 01:45:46;;;;;;;3.33;0.98;;;10.00;99.90;;;;;;5074241;28;20117;-79
2022/11/25 01:48:15;;;;;;;8.55;1.27;;;10.00;99.90;;;;;;5066136;28;20033;-79
2022/11/25 01:50:42;;;;;;;3.85;1.02;;;9.90;99.90;;;;;;5073122;28;20031;-79
2022/11/25 01:53:09;;;;;;;5.03;0.90;;;10.00;99.90;;;;;;5073014;28;20025;-79
2022/11/25 01:55:38;;;;;;;2.80;1.30;;;10.10;99.90;;;;;;5071629;28;20020;-80
2022/11/25 01:58:19;;;;;;;3.80;0.98;;;10.10;99.90;;;;;;5072643;28;20028;-80
2022/11/25 02:00:50;;;;;;;8.68;1.80;;;10.10;99.90;;;;;;5072671;28;20119;-79
2022/11/25 02:03:23;;;;;;;4.93;1.00;;;10.00;99.90;;;;;;5072795;28;20079;-79
2022/11/25 02:05:54;;;;;;;3.60;1.20;;;10.10;99.90;;;;;;5065157;28;20530;-78
2022/11/25 02:08:22;;;;;;;4.90;1.00;;;9.90;99.90;;;;;;5074029;28;20381;-79
2022/11/25 02:10:51;;;;;;;5.55;0.90;;;9.80;99.90;;;;;;5072235;28;20048;-78
2022/11/25 02:13:16;;;;;;;5.43;0.93;;;9.90;99.90;;;;;;5072537;28;20024;-80
2022/11/25 02:15:42;;;;;;;4.43;0.98;;;9.80;99.90;;;;;;5073808;28;20017;-80
2022/11/25 02:18:09;;;;;;;4.38;1.00;;;9.80;99.90;;;;;;5072333;28;20397;-79
2022/11/25 02:20:37;;;;;;;2.83;1.00;;;9.90;99.90;;;;;;5073675;28;20041;-79
2022/11/25 02:23:18;;;;;;;4.25;0.90;;;10.10;99.90;;;;;;5055587;28;20060;-78
2022/11/25 02:25:46;;;;;;;2.33;0.85;;;10.00;99.90;;;;;;5072033;28;20384;-78
2022/11/25 02:28:17;;;;;;;2.97;0.88;;;9.80;99.90;;;;;;5064566;28;20020;-79
2022/11/25 02:30:44;;;;;;;4.40;0.68;;;9.80;99.90;;;;;;5072097;28;20020;-78
2022/11/25 02:33:10;;;;;;;4.97;1.05;;;9.90;99.90;;;;;;5072051;28;20082;-79
2022/11/25 02:35:38;;;;;;;2.58;0.70;;;9.80;99.90;;;;;;5072148;28;20106;-79
2022/11/25 02:38:10;;;;;;;1.25;0.70;;;9.80;99.90;;;;;;5072010;28;20036;-79
2022/11/25 02:41:05;;;;;;;2.38;0.73;;;9.70;99.90;;;;;;5040704;28;20028;-79
2022/11/25 02:43:31;;;;;;;3.67;0.90;;;9.60;99.90;;;;;;5055484;28;20377;-79
2022/11/25 02:46:00;;;;;;;3.83;0.98;;;9.60;99.90;;;;;;5071834;28;20023;-79
2022/11/25 02:48:28;;;;;;;2.60;0.90;;;9.50;99.90;;;;;;5071835;28;20111;-79
2022/11/25 02:50:54;;;;;;;6.18;1.52;;;9.40;99.90;;;;;;5071813;28;20112;-79
2022/11/25 02:53:20;;;;;;;3.88;0.95;;;9.40;99.90;;;;;;5073007;28;20444;-79
2022/11/25 02:55:46;;;;;;;5.15;1.30;;;9.40;99.90;;;;;;5071530;28;20120;-79
2022/11/25 02:58:12;;;;;;;7.75;1.70;;;9.40;99.90;;;;;;5071777;28;20035;-78
2022/11/25 03:00:39;;;;;;;6.10;1.40;;;9.30;99.90;;;;;;5054993;28;20028;-78
2022/11/25 03:03:05;;;;;;;5.88;1.20;;;9.30;99.90;;;;;;5071791;28;20123;-79
2022/11/25 03:05:31;;;;;;;8.27;1.30;;;9.30;99.90;;;;;;5071479;28;20107;-79
2022/11/25 03:07:58;;;;;;;5.55;0.90;;;9.20;99.90;;;;;;5071208;28;20119;-79
2022/11/25 03:10:25;;;;;;;3.95;0.93;;;9.20;99.90;;;;;;5072586;28;20097;-79
2022/11/25 03:12:52;;;;;;;3.08;0.90;;;9.10;99.90;;;;;;5072558;28;20085;-79
2022/11/25 03:15:18;;;;;;;3.60;1.13;;;9.10;99.90;;;;;;5071392;28;20013;-78
2022/11/25 03:17:44;;;;;;;4.25;1.00;;;9.20;99.90;;;;;;5071626;28;20450;-79
2022/11/25 03:20:12;;;;;;;4.88;1.30;;;9.10;99.90;;;;;;5071421;28;20048;-79
2022/11/25 03:22:38;;;;;;;8.48;1.98;;;9.10;99.90;;;;;;5071509;28;20477;-79
2022/11/25 03:25:05;;;;;;;8.55;1.88;;;9.10;99.90;;;;;;5070816;28;20020;-79
2022/11/25 03:27:32;;;;;;;6.35;1.88;;;9.10;99.90;;;;;;5071690;28;20032;-79
2022/11/25 03:29:59;;;;;;;1.70;0.80;;;9.10;99.90;;;;;;5071381;28;20020;-79
2022/11/25 03:32:26;;;;;;;4.85;1.10;;;9.00;99.90;;;;;;5071364;28;20028;-79
2022/11/25 03:34:52;;;;;;;5.35;1.52;;;9.00;99.90;;;;;;5070946;28;20024;-77
2022/11/25 03:37:18;;;;;;;4.50;1.52;;;9.10;99.90;;;;;;5071454;28;20496;-79
2022/11/25 03:39:45;;;;;;;8.68;2.10;;;9.10;99.90;;;;;;5070998;28;20027;-79
2022/11/25 03:42:11;;;;;;;4.50;1.40;;;9.20;99.90;;;;;;5071099;28;20473;-79
2022/11/25 03:44:37;;;;;;;6.30;1.85;;;9.20;99.90;;;;;;5071465;28;20087;-79
2022/11/25 03:47:03;;;;;;;8.13;1.67;;;9.10;99.90;;;;;;5067800;28;20070;-79
2022/11/25 03:49:29;;;;;;;6.30;1.40;;;9.20;99.90;;;;;;5060534;28;20032;-79
2022/11/25 03:51:55;;;;;;;9.30;1.90;;;9.10;99.90;;;;;;5070976;28;20028;-79
2022/11/25 03:54:21;;;;;;;7.35;2.13;;;9.00;99.90;;;;;;5054016;28;20123;-79
2022/11/25 03:57:07;;;;;;;9.55;2.33;;;9.10;99.90;;;;;;5071650;28;20040;-79
2022/11/25 03:59:34;;;;;;;8.23;1.88;;;9.00;99.90;;;;;;5071252;28;20032;-78
2022/11/25 04:02:00;;;;;;;10.80;2.20;;;8.90;99.90;;;;;;5070776;28;20031;-79
2022/11/25 04:04:26;;;;;;;9.95;2.00;;;8.90;99.90;;;;;;5071110;28;20025;-80
2022/11/25 04:06:52;;;;;;;18.48;2.53;;;9.00;99.90;;;;;;5054015;28;20389;-80
2022/11/25 04:09:18;;;;;;;9.68;2.83;;;9.00;99.90;;;;;;5070955;28;20054;-79
2022/11/25 04:14:38;;;;;;;8.77;2.83;;;9.10;99.90;;;;;;5071025;28;20025;-80
2022/11/25 04:17:04;;;;;;;10.85;2.25;;;9.00;99.90;;;;;;5071021;28;20472;-79
2022/11/25 04:19:30;;;;;;;11.45;2.67;;;9.00;99.90;;;;;;5072920;28;20073;-79
2022/11/25 04:21:59;;;;;;;10.95;2.15;;;9.00;99.90;;;;;;5074347;28;20408;-79
2022/11/25 04:24:28;;;;;;;;;;;9.10;99.90;;;;;;5075140;28;20488;-79
2022/11/25 04:26:54;;;;;;;10.35;2.65;;;9.10;99.90;;;;;;5074656;28;19997;-79
2022/11/25 04:29:20;;;;;;;12.70;3.35;;;9.10;99.90;;;;;;5075352;28;20020;-78
2022/11/25 04:31:47;;;;;;;9.75;2.78;;;9.00;99.90;;;;;;5074572;28;20017;-78
2022/11/25 04:34:13;;;;;;;13.18;2.50;;;9.10;99.90;;;;;;5057908;28;20039;-79
2022/11/25 04:36:39;;;;;;;14.57;2.40;;;9.20;99.90;;;;;;5073846;28;20024;-79
2022/11/25 04:39:05;;;;;;;11.60;2.25;;;9.30;99.90;;;;;;5074446;28;20498;-78
2022/11/25 04:41:32;;;;;;;15.32;2.72;;;9.30;99.90;;;;;;5074255;28;20036;-79
2022/11/25 04:44:01;;;;;;;8.18;2.40;;;9.30;99.90;;;;;;5073983;28;20500;-77
2022/11/25 04:46:35;;;;;;;12.18;2.25;;;9.20;99.90;;;;;;5057396;28;20020;-79
2022/11/25 04:49:01;;;;;;;20.77;3.50;;;9.20;99.90;;;;;;5074426;28;20515;-79
2022/11/25 04:51:27;;;;;;;12.50;3.00;;;9.20;99.90;;;;;;5075410;28;20020;-79
2022/11/25 04:53:57;;;;;;;16.02;3.92;;;9.10;99.90;;;;;;5058014;28;20023;-79
2022/11/25 04:56:24;;;;;;;14.80;3.80;;;9.20;99.90;;;;;;5074098;28;20511;-79
2022/11/25 05:01:40;;;;;;;12.07;2.60;;;9.30;99.90;;;;;;5073810;28;20480;-79
2022/11/25 05:04:19;;;;;;;13.77;2.88;;;9.30;99.90;;;;;;5073809;28;20115;-79
2022/11/25 05:06:45;;;;;;;11.63;3.40;;;9.20;99.90;;;;;;5073436;28;20059;-79
2022/11/25 05:09:12;;;;;;;23.58;3.63;;;9.20;99.90;;;;;;5057118;28;20020;-79
2022/11/25 05:11:39;;;;;;;16.92;4.53;;;9.10;99.90;;;;;;5073702;28;20025;-78
2022/11/25 05:14:05;;;;;;;14.25;4.80;;;9.10;99.90;;;;;;5073820;28;20070;-79
2022/11/25 05:16:32;;;;;;;16.67;3.33;;;9.00;99.90;;;;;;5073712;28;20082;-78
2022/11/25 05:18:59;;;;;;;16.25;3.28;;;9.00;99.90;;;;;;5073675;28;20056;-78
2022/11/25 05:21:26;;;;;;;11.18;3.33;;;9.10;99.90;;;;;;5056352;28;20499;-80
2022/11/25 05:23:53;;;;;;;15.48;4.13;;;9.00;99.90;;;;;;5073566;28;20067;-79
2022/11/25 05:26:19;;;;;;;16.40;3.45;;;9.00;99.90;;;;;;5073122;28;20166;-79
2022/11/25 05:28:48;;;;;;;13.88;2.72;;;9.00;99.90;;;;;;5073668;28;20035;-79
2022/11/25 05:31:14;;;;;;;14.70;2.50;;;9.00;99.90;;;;;;5072933;28;20024;-79
2022/11/25 05:33:40;;;;;;;10.60;3.15;;;9.00;99.90;;;;;;5073350;28;20473;-78
2022/11/25 05:36:09;;;;;;;23.58;7.30;;;8.80;99.90;;;;;;5072783;28;20024;-79
2022/11/25 05:38:42;;;;;;;11.25;3.78;;;8.90;99.90;;;;;;5057332;28;20029;-79
2022/11/25 05:41:10;;;;;;;11.52;2.92;;;9.10;99.90;;;;;;5056873;28;20032;-78
2022/11/25 05:43:38;;;;;;;8.45;2.88;;;8.80;99.90;;;;;;5073181;28;20039;-79
2022/11/25 05:46:08;;;;;;;21.00;3.40;;;8.90;99.90;;;;;;5056711;28;20493;-79
2022/11/25 05:48:37;;;;;;;10.07;3.03;;;8.90;99.90;;;;;;5072572;28;20427;-79
2022/11/25 05:51:04;;;;;;;13.35;2.65;;;8.80;99.90;;;;;;5072967;28;20044;-78
2022/11/25 05:53:31;;;;;;;11.40;2.53;;;8.80;99.90;;;;;;5072944;28;20119;-78
2022/11/25 05:56:01;;;;;;;14.80;2.30;;;8.80;99.90;;;;;;5073422;28;20070;-79
2022/11/25 05:58:53;;;;;;;9.15;2.20;;;8.70;99.90;;;;;;5073183;28;20040;-79
2022/11/25 06:01:21;;;;;;;11.88;2.80;;;8.70;99.90;;;;;;5072838;28;20020;-79
2022/11/25 06:03:47;;;;;;;13.23;2.78;;;8.70;99.90;;;;;;5068132;28;20037;-78
2022/11/25 06:06:15;;;;;;;11.10;3.03;;;8.70;99.90;;;;;;5072884;28;20477;-78
2022/11/25 06:08:41;;;;;;;12.30;3.20;;;8.70;99.90;;;;;;5074138;28;20066;-79
2022/11/25 06:11:11;;;;;;;14.98;3.05;;;8.80;99.90;;;;;;5072677;28;20028;-78
2022/11/25 06:13:38;;;;;;;11.88;2.78;;;8.80;99.90;;;;;;5072651;28;20515;-79
2022/11/25 06:16:12;;;;;;;7.97;2.15;;;8.70;99.90;;;;;;5072454;28;20029;-79
2022/11/25 06:18:38;;;;;;;12.45;2.22;;;8.70;99.90;;;;;;5055729;28;20119;-79
2022/11/25 06:21:07;;;;;;;8.00;2.13;;;8.60;99.90;;;;;;5072261;28;20017;-79
2022/11/25 06:23:35;;;;;;;10.48;2.90;;;8.60;99.90;;;;;;5072338;28;20024;-79
2022/11/25 06:26:11;;;;;;;20.10;2.92;;;8.70;99.90;;;;;;5055558;28;20075;-79
2022/11/25 06:28:37;;;;;;;11.25;2.55;;;8.60;99.90;;;;;;5072223;28;20033;-79
2022/11/25 06:31:08;;;;;;;12.68;2.72;;;8.70;99.90;;;;;;5073541;28;20035;-79
2022/11/25 06:33:40;;;;;;;11.77;2.58;;;8.60;99.90;;;;;;5072143;28;20035;-79
2022/11/25 06:36:15;;;;;;;8.90;2.83;;;8.50;99.90;;;;;;5072410;28;20469;-78
2022/11/25 06:38:43;;;;;;;13.60;2.63;;;8.40;99.90;;;;;;5073153;28;20029;-78
2022/11/25 06:41:09;;;;;;;10.85;2.72;;;8.50;99.90;;;;;;5072710;28;20063;-79
2022/11/25 06:43:34;;;;;;;10.90;2.38;;;8.40;99.90;;;;;;5073094;28;20127;-78
2022/11/25 06:46:02;;;;;;;10.60;2.40;;;8.30;99.90;;;;;;5073292;28;20021;-79
2022/11/25 06:48:28;;;;;;;9.52;3.05;;;8.30;99.90;;;;;;5072849;28;20028;-79
2022/11/25 06:50:59;;;;;;;13.93;2.60;;;8.40;99.90;;;;;;5068569;28;20585;-78
2022/11/25 06:53:26;;;;;;;12.60;3.40;;;8.40;99.90;;;;;;5049465;28;20035;-79
2022/11/25 06:56:25;;;;;;;7.30;2.65;;;8.40;99.90;;;;;;5060462;28;20078;-78
2022/11/25 06:58:51;;;;;;;15.65;2.47;;;8.40;99.90;;;;;;5046110;28;20043;-79
2022/11/25 07:01:22;;;;;;;12.52;3.25;;;8.40;99.90;;;;;;5052822;28;20029;-79
2022/11/25 07:03:51;;;;;;;13.48;3.30;;;8.30;99.90;;;;;;5056238;28;20051;-78
2022/11/25 07:06:18;;;;;;;16.35;4.10;;;8.30;99.90;;;;;;5059963;28;20025;-78
2022/11/25 07:08:45;;;;;;;15.93;3.95;;;8.20;99.90;;;;;;5047472;28;20109;-78
2022/11/25 07:11:18;;;;;;;16.88;4.15;;;8.30;99.90;;;;;;5046777;28;20032;-78
2022/11/25 07:13:45;;;;;;;14.45;3.88;;;8.20;99.90;;;;;;5037494;28;20041;-79
2022/11/25 07:16:11;;;;;;;12.38;3.80;;;8.20;99.90;;;;;;5049761;28;20104;-78
2022/11/25 07:18:38;;;;;;;11.68;4.30;;;8.30;99.90;;;;;;5063365;28;20536;-79
2022/11/25 07:21:13;;;;;;;16.55;4.80;;;8.10;99.90;;;;;;5058386;28;20033;-77
2022/11/25 07:23:40;;;;;;;20.58;4.85;;;8.10;99.90;;;;;;5052322;28;20044;-79
2022/11/25 07:26:18;;;;;;;15.02;4.55;;;8.20;99.90;;;;;;5054047;28;20033;-79
2022/11/25 07:28:44;;;;;;;17.75;4.47;;;8.20;99.90;;;;;;5045848;28;20040;-80
2022/11/25 07:31:23;;;;;;;15.40;4.38;;;8.20;99.90;;;;;;5060851;28;20029;-79
2022/11/25 07:34:01;;;;;;;21.00;5.18;;;8.20;99.90;;;;;;5047719;28;20446;-78
2022/11/25 07:36:29;;;;;;;17.98;4.40;;;8.30;99.90;;;;;;5066537;28;20477;-78
2022/11/25 07:38:56;;;;;;;16.13;4.78;;;8.40;99.90;;;;;;5044234;28;20104;-79
2022/11/25 07:41:24;;;;;;;15.23;5.28;;;8.40;99.90;;;;;;5071673;28;20020;-79
2022/11/25 07:43:53;;;;;;;18.17;4.72;;;8.30;99.90;;;;;;5071544;28;20036;-79
2022/11/25 07:46:28;;;;;;;18.48;5.22;;;8.40;99.90;;;;;;5053671;28;20091;-79
2022/11/25 07:48:54;;;;;;;;;;;8.40;99.90;;;;;;5070672;28;20036;-79
2022/11/25 07:51:20;;;;;;;21.60;6.20;;;8.50;99.90;;;;;;5059647;28;19971;-81
2022/11/25 07:53:47;;;;;;;22.63;5.85;;;8.60;99.90;;;;;;5056545;28;20051;-79
2022/11/25 07:56:14;;;;;;;18.20;5.25;;;8.70;99.90;;;;;;5063973;28;20021;-81
2022/11/25 07:58:40;;;;;;;19.23;5.57;;;8.60;99.90;;;;;;5059194;28;20088;-80
2022/11/25 08:01:07;;;;;;;23.30;4.65;;;8.70;99.90;;;;;;5053101;28;20485;-81
2022/11/25 08:03:35;;;;;;;14.70;4.72;;;8.70;99.90;;;;;;5066424;28;20036;-80
2022/11/25 08:06:05;;;;;;;16.55;4.70;;;8.80;99.90;;;;;;5063580;28;20056;-81
2022/11/25 08:08:32;;;;;;;20.63;4.53;;;8.90;99.90;;;;;;5064378;28;20115;-81
2022/11/25 08:10:58;;;;;;;19.48;4.50;;;9.00;99.90;;;;;;5056342;28;20025;-80
2022/11/25 08:13:24;;;;;;;14.50;5.35;;;8.90;99.90;;;;;;5055255;28;20025;-78
2022/11/25 08:15:50;;;;;;;17.13;4.63;;;8.80;99.90;;;;;;5063788;28;20027;-80
2022/11/25 08:18:16;;;;;;;19.95;4.93;;;8.90;99.90;;;;;;5047212;28;20025;-80
2022/11/25 08:20:42;;;;;;;17.85;4.43;;;9.10;99.90;;;;;;5059233;28;20028;-79
2022/11/25 08:23:08;;;;;;;18.25;4.25;;;9.20;99.90;;;;;;5056477;28;20033;-80
2022/11/25 08:25:39;;;;;;;24.85;6.15;;;9.30;99.90;;;;;;5057626;28;20062;-76
2022/11/25 08:28:04;;;;;;;16.33;4.32;;;9.10;99.90;;;;;;5054941;28;20033;-80
2022/11/25 08:30:30;;;;;;;17.13;4.53;;;9.00;99.90;;;;;;5065088;28;20427;-79
2022/11/25 08:32:57;;;;;;;25.50;5.30;;;9.00;99.90;;;;;;5061351;28;20057;-80
2022/11/25 08:35:23;;;;;;;18.92;4.78;;;9.10;99.90;;;;;;5060980;28;20032;-80
2022/11/25 08:37:49;;;;;;;18.33;4.50;;;9.10;99.90;;;;;;5073456;28;20028;-79
2022/11/25 08:40:15;;;;;;;21.70;4.65;;;9.00;99.90;;;;;;5074831;28;20035;-80
2022/11/25 08:42:40;;;;;;;20.42;4.43;;;9.00;99.90;;;;;;5071095;28;20040;-80
2022/11/25 08:45:07;;;;;;;19.00;5.32;;;9.00;99.90;;;;;;5050078;28;20017;-79
2022/11/25 08:47:33;;;;;;;19.25;4.50;;;9.20;99.90;;;;;;5047530;28;20025;-80
2022/11/25 08:49:59;;;;;;;26.17;5.95;;;9.40;99.90;;;;;;5050282;28;20431;-79
2022/11/25 08:52:25;;;;;;;17.50;4.10;;;9.50;99.90;;;;;;5056231;28;20025;-80
2022/11/25 08:54:51;;;;;;;14.25;3.67;;;9.50;99.90;;;;;;5056985;28;20048;-79
2022/11/25 08:57:17;;;;;;;15.68;4.35;;;9.50;99.90;;;;;;5053885;28;20021;-78
2022/11/25 08:59:42;;;;;;;12.70;3.95;;;9.60;99.90;;;;;;5047681;28;20103;-78
2022/11/25 09:02:11;;;;;;;13.73;3.95;;;9.90;99.90;;;;;;5055135;28;20051;-79
2022/11/25 09:04:36;;;;;;;18.58;3.95;;;9.80;99.90;;;;;;5048402;28;20115;-78
2022/11/25 09:07:04;;;;;;;16.13;3.83;;;9.90;99.90;;;;;;5060450;28;20631;-78
2022/11/25 09:09:30;;;;;;;21.83;4.40;;;9.90;99.90;;;;;;5055270;28;20023;-79
2022/11/25 09:11:56;;;;;;;16.83;4.22;;;10.10;99.90;;;;;;5056309;28;20048;-77
2022/11/25 09:14:22;;;;;;;16.92;3.63;;;10.10;99.90;;;;;;5055559;28;20020;-79
2022/11/25 09:16:48;;;;;;;20.95;3.88;;;10.20;99.90;;;;;;5064667;28;20471;-78
2022/11/25 09:19:14;;;;;;;13.68;3.95;;;10.40;99.90;;;;;;5058396;28;20028;-78
2022/11/25 09:21:42;;;;;;;14.43;3.20;;;10.50;99.90;;;;;;5054641;28;20048;-78
2022/11/25 09:24:08;;;;;;;10.27;2.33;;;10.70;99.90;;;;;;5043827;28;20091;-79
2022/11/25 09:26:38;;;;;;;17.70;3.35;;;10.60;99.90;;;;;;5068256;28;20070;-79
2022/11/25 09:29:04;;;;;;;13.70;3.03;;;10.70;99.90;;;;;;5065155;28;20028;-81
2022/11/25 09:31:30;;;;;;;11.77;2.65;;;10.80;99.90;;;;;;5052987;28;20029;-80
2022/11/25 09:33:56;;;;;;;11.50;2.78;;;10.90;99.90;;;;;;5055038;28;20032;-80
2022/11/25 09:36:23;;;;;;;8.40;2.25;;;11.00;99.90;;;;;;5067703;28;20089;-80
2022/11/25 09:38:50;;;;;;;11.35;2.88;;;11.00;99.90;;;;;;5073423;28;20025;-80
2022/11/25 09:47:36;;;;;;;7.15;2.08;;;11.40;99.90;;;;;;5073761;28;20486;-78
2022/11/25 09:50:30;;;;;;;12.93;2.50;;;11.60;99.90;;;;;;5073033;28;20154;-79
2022/11/25 09:53:17;;;;;;;8.23;2.20;;;11.90;99.90;;;;;;5073044;28;20055;-78
2022/11/25 09:55:46;;;;;;;11.25;2.85;;;11.90;99.90;;;;;;5074068;28;20388;-81
2022/11/25 09:58:16;;;;;;;6.28;2.50;;;12.10;99.90;;;;;;5072071;28;20119;-78
2022/11/25 10:00:48;;;;;;;8.38;2.40;;;11.90;99.90;;;;;;5074148;28;20553;-79
2022/11/25 10:03:43;;;;;;;7.45;2.38;;;11.80;99.90;;;;;;5074027;28;20044;-79
2022/11/25 10:06:19;;;;;;;10.70;1.83;;;11.70;99.90;;;;;;5072865;28;20066;-79
2022/11/25 10:08:50;;;;;;;9.65;2.22;;;11.70;99.90;;;;;;5073884;28;20530;-79
2022/11/25 10:11:45;;;;;;;14.43;3.05;;;12.40;99.90;;;;;;5073942;28;20078;-79
2022/11/25 10:14:34;;;;;;;6.45;2.55;;;12.80;99.90;;;;;;5073671;28;20028;-79
2022/11/25 10:17:12;;;;;;;9.18;2.00;;;12.70;99.90;;;;;;5072666;28;20089;-78
2022/11/25 10:20:15;;;;;;;9.38;2.22;;;13.00;99.90;;;;;;5073155;28;20462;-78
2022/11/25 10:22:47;;;;;;;9.82;1.92;;;12.50;99.90;;;;;;5073233;28;20071;-78
2022/11/25 10:25:47;;;;;;;3.88;1.73;;;12.60;99.90;;;;;;5073145;28;20032;-81
2022/11/25 10:28:22;;;;;;;11.98;2.45;;;12.20;99.90;;;;;;5070948;28;20562;-80
2022/11/25 10:31:15;;;;;;;9.93;2.50;;;12.10;99.90;;;;;;5071528;28;20029;-81
2022/11/25 10:33:48;;;;;;;7.70;2.28;;;12.50;99.90;;;;;;5073296;28;20477;-78
2022/11/25 10:36:23;;;;;;;7.10;1.60;;;12.90;99.90;;;;;;5073530;28;20362;-80
2022/11/25 10:39:04;;;;;;;7.00;2.10;;;12.60;99.90;;;;;;5109950;27;20120;-70
2022/11/25 10:41:37;;;;;;;10.32;2.40;;;12.80;99.90;;;;;;5110610;28;20535;-71
2022/11/25 10:44:11;;;;;;;8.70;2.95;;;13.60;99.90;;;;;;5109796;28;20028;-70
2022/11/25 10:46:47;;;;;;;9.93;2.40;;;13.50;99.90;;;;;;5098189;28;20044;-68
2022/11/25 10:49:12;;;;;;;7.63;2.22;;;13.80;99.90;;;;;;5090573;28;20526;-72
2022/11/25 10:51:44;;;;;;;12.20;3.00;;;13.40;99.90;;;;;;5094296;28;20028;-67
2022/11/25 10:54:10;;;;;;;;;;;13.30;99.90;;;;;;5089336;28;20415;-70
2022/11/25 10:56:50;;;;;;;9.57;2.60;;;13.50;99.90;;;;;;5094891;28;19908;-73
2022/11/25 10:59:29;;;;;;;10.93;2.55;;;13.60;99.90;;;;;;5097600;28;20016;-68
2022/11/25 11:02:14;;;;;;;12.48;2.85;;;13.60;99.90;;;;;;5098493;28;20476;-70
2022/11/25 11:05:00;;;;;;;11.93;3.20;;;13.70;99.90;;;;;;5079204;28;20036;-67
2022/11/25 11:07:29;;;;;;;14.05;2.75;;;14.10;99.90;;;;;;5098908;28;20028;-73
2022/11/25 11:10:14;;;;;;;15.88;3.10;;;14.30;99.90;;;;;;5102290;28;20028;-70
2022/11/25 11:12:58;;;;;;;12.52;3.00;;;14.80;99.90;;;;;;5095705;28;20077;-69
2022/11/25 11:15:26;;;;;;;12.57;2.70;;;14.50;99.90;;;;;;5091477;28;20020;-72
2022/11/25 11:17:53;;;;;;;15.07;2.67;;;14.00;99.90;;;;;;5089593;28;20036;-68
2022/11/25 11:20:30;;;;;;;14.50;2.75;;;14.40;99.90;;;;;;5085219;28;20060;-67
2022/11/25 11:23:01;;;;;;;10.48;2.90;;;14.40;99.90;;;;;;5088391;28;20104;-71
2022/11/25 11:25:33;;;;;;;10.38;2.80;;;14.50;99.90;;;;;;5089588;28;20032;-73
2022/11/25 11:28:00;;;;;;;13.05;2.63;;;14.20;99.90;;;;;;5088745;28;20142;-67
2022/11/25 11:30:29;;;;;;;15.63;3.38;;;13.90;99.90;;;;;;5088014;28;20036;-71
2022/11/25 11:33:06;;;;;;;7.55;2.30;;;13.50;99.90;;;;;;5088760;28;20024;-70
2022/11/25 11:35:31;;;;;;;13.43;3.13;;;13.80;99.90;;;;;;5093775;28;20426;-70
2022/11/25 11:38:12;;;;;;;10.15;2.65;;;14.10;99.90;;;;;;5107712;28;20096;-71
2022/11/25 11:40:54;;;;;;;12.38;2.97;;;13.90;99.90;;;;;;5109464;28;20032;-66
2022/11/25 11:44:08;;;;;;;16.48;3.65;;;14.40;99.90;;;;;;5108284;28;20032;-70
2022/11/25 11:47:35;;;;;;;15.18;3.15;;;14.30;99.90;;;;;;5104222;28;20044;-69
2022/11/25 11:50:22;;;;;;;14.40;3.08;;;14.30;99.90;;;;;;5071881;28;20436;-71
2022/11/25 11:53:14;;;;;;;11.48;3.35;;;15.00;99.90;;;;;;5093952;28;20046;-71
2022/11/25 11:55:58;;;;;;;10.35;3.28;;;15.30;99.90;;;;;;5094160;28;20032;-72
2022/11/25 11:58:45;;;;;;;14.43;3.08;;;14.60;99.90;;;;;;5095436;28;20051;-70
2022/11/25 12:01:36;;;;;;;16.27;3.00;;;14.60;99.90;;;;;;5095480;28;20107;-72
2022/11/25 12:04:20;;;;;;;13.33;2.83;;;14.80;99.90;;;;;;5095413;28;20028;-67
2022/11/25 12:07:15;;;;;;;13.07;2.85;;;14.80;99.90;;;;;;5095074;28;20165;-66
2022/11/25 12:10:16;;;;;;;18.60;3.50;;;14.20;99.90;;;;;;5095119;28;20032;-72
2022/11/25 12:12:53;;;;;;;9.10;2.25;;;14.80;99.90;;;;;;5090191;28;20565;-71
2022/11/25 12:15:42;;;;;;;11.65;3.30;;;14.40;99.90;;;;;;5095370;28;20042;-68
2022/11/25 12:18:19;;;;;;;18.15;3.80;;;14.50;99.90;;;;;;5094715;28;20381;-70
2022/11/25 12:20:45;;;;;;;18.52;3.47;;;15.10;99.90;;;;;;5094546;28;20097;-72
2022/11/25 12:23:28;;;;;;;13.57;3.53;;;15.50;99.90;;;;;;5095194;28;20032;-70
2022/11/25 12:26:01;;;;;;;14.48;3.63;;;16.00;99.90;;;;;;5095087;28;20036;-73
2022/11/25 12:28:44;;;;;;;20.98;3.30;;;15.90;99.90;;;;;;5094922;28;20027;-67
2022/11/25 12:31:26;;;;;;;24.23;4.00;;;15.30;99.90;;;;;;5093637;28;20028;-73
2022/11/25 12:34:01;;;;;;;18.17;3.75;;;16.00;99.90;;;;;;5095049;28;20039;-67
2022/11/25 12:36:42;;;;;;;20.42;4.22;;;15.90;99.90;;;;;;5094559;28;20476;-68
2022/11/25 12:39:20;;;;;;;20.00;3.83;;;15.50;99.90;;;;;;5094829;28;20181;-69
2022/11/25 12:42:02;;;;;;;23.08;3.75;;;14.70;99.90;;;;;;5094568;28;20032;-67
2022/11/25 12:44:38;;;;;;;18.20;3.90;;;14.30;99.90;;;;;;5094903;28;20036;-69
2022/11/25 12:47:09;;;;;;;23.42;4.57;;;14.10;99.90;;;;;;5094629;28;20020;-69
2022/11/25 12:49:42;;;;;;;20.00;4.73;;;14.10;99.90;;;;;;5094453;28;20537;-67
2022/11/25 12:52:20;;;;;;;28.55;4.47;;;14.50;99.90;;;;;;5094437;28;20028;-67
2022/11/25 12:55:20;;;;;;;32.45;4.28;;;14.90;99.90;;;;;;5093239;28;20046;-73
2022/11/25 12:57:55;;;;;;;17.77;4.13;;;14.90;99.90;;;;;;5094302;28;20157;-70
2022/11/25 13:00:24;;;;;;;20.30;3.83;;;15.50;99.90;;;;;;5093598;28;20484;-72
2022/11/25 13:03:08;;;;;;;23.08;4.68;;;15.10;99.90;;;;;;5094538;28;20031;-72
2022/11/25 13:05:53;;;;;;;18.00;4.53;;;15.20;99.90;;;;;;5093825;28;20118;-69
2022/11/25 13:08:53;;;;;;;23.13;4.60;;;15.20;99.90;;;;;;5094500;28;20028;-72
2022/11/25 13:11:27;;;;;;;11.05;2.83;;;15.50;99.90;;;;;;5086663;28;20051;-68
2022/11/25 13:14:11;;;;;;;17.52;4.28;;;14.70;99.90;;;;;;5094290;28;20031;-67
2022/11/25 13:16:38;;;;;;;34.58;5.40;;;14.30;99.90;;;;;;5085484;28;20111;-68
2022/11/25 13:19:10;;;;;;;20.02;4.78;;;14.30;99.90;;;;;;5088346;28;20040;-70
2022/11/25 13:21:55;;;;;;;23.15;5.32;;;14.30;99.90;;;;;;5091868;28;20103;-69